createdAt,value
2022-08-01T00:00:18.479Z,5.20
2022-08-01T00:03:06.801Z,6.20
2022-08-01T00:05:37.216Z,6.80
2022-08-01T00:08:07.936Z,7.00
2022-08-01T00:10:37.649Z,4.90
2022-08-01T00:13:08.296Z,6.40
2022-08-01T00:15:41.288Z,6.20
2022-08-01T00:18:24.379Z,6.10
2022-08-01T00:20:54.406Z,6.70
2022-08-01T00:23:24.621Z,5.50
2022-08-01T00:25:54.899Z,6.10
2022-08-01T00:28:25.022Z,6.80
2022-08-01T00:30:55.467Z,6.20
2022-08-01T00:33:25.523Z,5.80
2022-08-01T00:35:56.770Z,5.40
2022-08-01T00:38:26.456Z,6.40
2022-08-01T00:40:59.220Z,6.40
2022-08-01T00:43:29.535Z,7.10
2022-08-01T00:45:59.926Z,7.40
2022-08-01T00:48:29.483Z,6.70
2022-08-01T00:51:00.269Z,7.20
2022-08-01T00:53:50.805Z,6.70
2022-08-01T00:56:22.145Z,6.90
2022-08-01T00:58:53.337Z,6.40
2022-08-01T01:01:24.072Z,6.60
2022-08-01T01:04:10.038Z,6.20
2022-08-01T01:06:58.157Z,6.40
2022-08-01T01:09:36.552Z,7.20
2022-08-01T01:12:18.668Z,7.10
2022-08-01T01:15:21.172Z,7.00
2022-08-01T01:17:59.838Z,7.10
2022-08-01T01:20:34.133Z,7.70
2022-08-01T01:23:03.061Z,7.00
2022-08-01T01:25:39.236Z,8.20
2022-08-01T01:28:25.445Z,7.80
2022-08-01T01:30:59.708Z,6.40
2022-08-01T01:33:35.249Z,6.80
2022-08-01T01:36:19.041Z,7.50
2022-08-01T01:38:55.027Z,7.10
2022-08-01T01:41:34.548Z,9.10
2022-08-01T01:44:07.464Z,7.00
2022-08-01T01:46:39.635Z,6.60
2022-08-01T01:49:17.113Z,6.20
2022-08-01T01:51:57.429Z,4.90
2022-08-01T01:54:44.961Z,5.10
2022-08-01T01:57:18.755Z,4.80
2022-08-01T01:59:49.677Z,5.00
2022-08-01T02:02:21.787Z,4.70
2022-08-01T02:04:54.217Z,4.80
2022-08-01T02:07:27.448Z,4.40
2022-08-01T02:10:01.949Z,4.80
2022-08-01T02:12:40.253Z,3.10
2022-08-01T02:15:12.822Z,5.00
2022-08-01T02:17:51.923Z,4.10
2022-08-01T02:20:23.119Z,3.30
2022-08-01T02:23:01.842Z,2.80
2022-08-01T02:25:38.377Z,2.20
2022-08-01T02:28:30.457Z,3.60
2022-08-01T02:31:06.789Z,4.20
2022-08-01T02:33:51.238Z,5.50
2022-08-01T02:36:28.851Z,4.20
2022-08-01T02:39:10.849Z,4.70
2022-08-01T02:41:45.703Z,5.40
2022-08-01T02:44:27.099Z,4.70
2022-08-01T02:47:06.337Z,5.30
2022-08-01T02:49:40.936Z,4.20
2022-08-01T02:52:15.682Z,3.10
2022-08-01T02:54:49.349Z,3.40
2022-08-01T02:57:23.715Z,2.90
2022-08-01T03:00:01.846Z,4.40
2022-08-01T03:02:33.634Z,2.70
2022-08-01T03:05:08.514Z,3.90
2022-08-01T03:07:41.379Z,4.10
2022-08-01T03:10:13.285Z,3.40
2022-08-01T03:12:50.197Z,3.60
2022-08-01T03:15:24.439Z,4.10
2022-08-01T03:17:56.734Z,4.20
2022-08-01T03:20:29.187Z,3.90
2022-08-01T03:23:05.127Z,4.60
2022-08-01T03:25:42.599Z,4.70
2022-08-01T03:28:16.385Z,4.00
2022-08-01T03:30:47.634Z,4.50
2022-08-01T03:33:17.574Z,5.40
2022-08-01T03:35:56.624Z,5.10
2022-08-01T03:38:29.059Z,4.80
2022-08-01T03:41:10.860Z,4.00
2022-08-01T03:43:52.269Z,3.40
2022-08-01T03:46:44.319Z,3.20
2022-08-01T03:49:20.662Z,3.50
2022-08-01T03:51:52.832Z,4.10
2022-08-01T03:54:27.136Z,4.00
2022-08-01T03:56:58.471Z,4.20
2022-08-01T03:59:29.464Z,4.00
2022-08-01T04:02:01.315Z,3.40
2022-08-01T04:04:33.107Z,3.60
2022-08-01T04:07:08.152Z,3.30
2022-08-01T04:09:39.364Z,3.00
2022-08-01T04:12:12.281Z,4.10
2022-08-01T04:14:42.604Z,3.50
2022-08-01T04:17:12.810Z,3.90
2022-08-01T04:19:43.439Z,4.10
2022-08-01T04:22:17.232Z,3.00
2022-08-01T04:24:56.331Z,4.00
2022-08-01T04:27:55.757Z,3.80
2022-08-01T04:30:33.320Z,4.10
2022-08-01T04:33:08.664Z,3.50
2022-08-01T04:36:02.639Z,3.80
2022-08-01T04:38:35.371Z,3.80
2022-08-01T04:41:09.016Z,4.30
2022-08-01T04:43:40.625Z,5.60
2022-08-01T04:46:11.228Z,4.10
2022-08-01T04:48:41.968Z,4.20
2022-08-01T04:51:19.544Z,3.30
2022-08-01T04:53:50.841Z,4.90
2022-08-01T04:56:22.811Z,3.30
2022-08-01T04:59:19.693Z,3.10
2022-08-01T05:01:52.329Z,3.60
2022-08-01T05:04:23.090Z,4.10
2022-08-01T05:06:54.557Z,4.20
2022-08-01T05:09:27.028Z,3.90
2022-08-01T05:12:03.589Z,4.10
2022-08-01T05:14:34.659Z,3.20
2022-08-01T05:17:07.871Z,4.00
2022-08-01T05:19:39.135Z,3.60
2022-08-01T05:22:10.690Z,5.40
2022-08-01T05:24:42.404Z,5.30
2022-08-01T05:27:13.552Z,5.70
2022-08-01T05:29:45.866Z,7.00
2022-08-01T05:32:15.273Z,5.80
2022-08-01T05:34:45.592Z,7.00
2022-08-01T05:37:17.705Z,7.00
2022-08-01T05:39:47.162Z,5.60
2022-08-01T05:42:16.254Z,6.40
2022-08-01T05:44:45.248Z,6.30
2022-08-01T05:47:14.136Z,5.70
2022-08-01T05:49:43.743Z,5.40
2022-08-01T05:52:13.451Z,6.70
2022-08-01T05:54:42.451Z,4.70
2022-08-01T05:57:11.347Z,4.20
2022-08-01T05:59:41.660Z,4.30
2022-08-01T06:02:11.061Z,4.20
2022-08-01T06:04:40.358Z,3.20
2022-08-01T06:07:09.354Z,3.80
2022-08-01T06:09:38.040Z,2.60
2022-08-01T06:12:07.220Z,1.80
2022-08-01T06:14:36.236Z,2.50
2022-08-01T06:17:05.009Z,2.40
2022-08-01T06:19:33.809Z,3.00
2022-08-01T06:22:02.494Z,3.20
2022-08-01T06:24:31.276Z,3.60
2022-08-01T06:27:00.276Z,3.60
2022-08-01T06:29:31.241Z,3.60
2022-08-01T06:32:00.612Z,3.60
2022-08-01T06:34:29.405Z,4.40
2022-08-01T06:36:58.089Z,3.70
2022-08-01T06:39:26.773Z,4.00
2022-08-01T06:41:55.622Z,3.50
2022-08-01T06:44:24.261Z,4.00
2022-08-01T06:46:53.242Z,4.10
2022-08-01T06:49:22.317Z,3.50
2022-08-01T06:51:51.736Z,3.50
2022-08-01T06:54:20.528Z,2.90
2022-08-01T06:56:49.210Z,2.80
2022-08-01T06:59:17.893Z,4.20
2022-08-01T07:01:46.578Z,3.70
2022-08-01T07:04:15.369Z,3.80
2022-08-01T07:06:43.956Z,4.60
2022-08-01T07:09:14.599Z,3.20
2022-08-01T07:11:43.681Z,3.60
2022-08-01T07:14:12.779Z,3.80
2022-08-01T07:16:41.665Z,4.40
2022-08-01T07:19:10.971Z,4.50
2022-08-01T07:21:41.898Z,4.20
2022-08-01T07:24:14.501Z,4.70
2022-08-01T07:26:52.577Z,4.60
2022-08-01T07:29:25.058Z,4.60
2022-08-01T07:31:55.624Z,4.40
2022-08-01T07:34:25.893Z,3.80
2022-08-01T07:36:55.312Z,3.90
2022-08-01T07:39:24.303Z,4.40
2022-08-01T07:42:07.406Z,4.70
2022-08-01T07:44:38.064Z,4.10
2022-08-01T07:47:07.462Z,4.10
2022-08-01T07:49:40.397Z,3.40
2022-08-01T07:52:10.471Z,4.20
2022-08-01T07:57:11.748Z,3.00
2022-08-01T07:59:44.435Z,3.60
2022-08-01T08:02:15.490Z,2.60
2022-08-01T08:04:48.925Z,1.90
2022-08-01T08:07:20.884Z,3.20
2022-08-01T08:09:51.126Z,2.10
2022-08-01T08:12:28.794Z,3.20
2022-08-01T08:15:11.117Z,2.60
2022-08-01T08:17:55.049Z,3.20
2022-08-01T08:20:41.463Z,2.50
2022-08-01T08:23:44.192Z,2.40
2022-08-01T08:26:15.117Z,4.50
2022-08-01T08:28:44.317Z,2.90
2022-08-01T08:33:59.482Z,3.40
2022-08-01T08:36:34.430Z,3.40
2022-08-01T08:39:09.969Z,3.30
2022-08-01T08:41:41.468Z,4.10
2022-08-01T08:44:25.383Z,3.70
2022-08-01T08:47:06.510Z,3.00
2022-08-01T08:49:50.267Z,3.30
2022-08-01T08:52:25.219Z,2.20
2022-08-01T08:55:00.012Z,2.70
2022-08-01T08:57:32.831Z,3.50
2022-08-01T09:00:14.080Z,2.80
2022-08-01T09:02:59.663Z,2.50
2022-08-01T09:05:38.903Z,1.90
2022-08-01T09:08:10.444Z,2.40
2022-08-01T09:10:55.271Z,2.70
2022-08-01T09:13:45.253Z,2.20
2022-08-01T09:16:23.214Z,2.00
2022-08-01T09:19:39.882Z,1.70
2022-08-01T09:22:15.629Z,1.20
2022-08-01T09:25:05.556Z,2.40
2022-08-01T09:27:44.236Z,2.00
2022-08-01T09:30:26.611Z,2.10
2022-08-01T09:33:06.560Z,2.30
2022-08-01T09:35:56.625Z,1.40
2022-08-01T09:38:36.267Z,1.40
2022-08-01T09:41:08.968Z,1.70
2022-08-01T09:43:39.845Z,2.10
2022-08-01T09:46:13.264Z,1.90
2022-08-01T09:49:07.209Z,1.90
2022-08-01T09:51:59.372Z,1.80
2022-08-01T09:54:33.699Z,1.70
2022-08-01T09:57:14.280Z,2.70
2022-08-01T10:00:01.076Z,2.00
2022-08-01T10:02:42.329Z,2.00
2022-08-01T10:05:18.962Z,2.10
2022-08-01T10:10:31.594Z,2.10
2022-08-01T10:13:03.340Z,2.60
2022-08-01T10:15:36.903Z,3.20
2022-08-01T10:18:16.772Z,2.90
2022-08-01T10:20:58.124Z,2.40
2022-08-01T10:23:39.691Z,3.30
2022-08-01T10:26:15.673Z,3.90
2022-08-01T10:28:50.373Z,3.30
2022-08-01T10:31:21.136Z,3.00
2022-08-01T10:34:02.706Z,2.90
2022-08-01T10:36:40.953Z,2.20
2022-08-01T10:39:21.150Z,1.80
2022-08-01T10:42:02.329Z,2.10
2022-08-01T10:44:45.187Z,2.40
2022-08-01T10:47:50.621Z,1.80
2022-08-01T10:50:48.882Z,2.20
2022-08-01T10:56:26.416Z,2.70
2022-08-01T10:59:11.725Z,2.00
2022-08-01T11:02:10.887Z,1.60
2022-08-01T11:05:06.013Z,1.20
2022-08-01T11:07:49.947Z,1.30
2022-08-01T11:10:50.612Z,1.20
2022-08-01T11:13:59.155Z,1.00
2022-08-01T11:16:36.369Z,1.10
2022-08-01T11:19:10.775Z,1.20
2022-08-01T11:22:07.238Z,1.10
2022-08-01T11:25:01.158Z,1.10
2022-08-01T11:27:34.119Z,1.10
2022-08-01T11:30:13.868Z,1.20
2022-08-01T11:33:11.222Z,1.60
2022-08-01T11:36:15.663Z,1.30
2022-08-01T11:39:13.589Z,2.10
2022-08-01T11:41:51.733Z,1.30
2022-08-01T11:44:30.490Z,1.70
2022-08-01T11:47:14.684Z,1.50
2022-08-01T11:49:48.706Z,1.20
2022-08-01T11:52:31.697Z,1.10
2022-08-01T11:55:12.224Z,5.00
2022-08-01T11:57:48.531Z,3.00
2022-08-01T12:00:21.507Z,1.50
2022-08-01T12:03:04.855Z,1.30
2022-08-01T12:05:43.048Z,1.60
2022-08-01T12:08:13.409Z,1.70
2022-08-01T12:10:51.495Z,1.70
2022-08-01T12:13:46.551Z,1.80
2022-08-01T12:16:16.592Z,1.60
2022-08-01T12:18:47.229Z,1.60
2022-08-01T12:21:17.039Z,1.40
2022-08-01T12:23:47.612Z,1.50
2022-08-01T12:26:28.674Z,1.80
2022-08-01T12:29:00.853Z,1.40
2022-08-01T12:31:35.410Z,1.40
2022-08-01T12:34:29.763Z,1.30
2022-08-01T12:37:00.788Z,1.30
2022-08-01T12:39:36.148Z,1.00
2022-08-01T12:42:13.844Z,1.50
2022-08-01T12:44:47.039Z,1.40
2022-08-01T12:47:16.418Z,1.40
2022-08-01T12:52:16.676Z,1.60
2022-08-01T12:55:10.266Z,1.40
2022-08-01T12:57:43.046Z,1.40
2022-08-01T13:00:21.047Z,1.30
2022-08-01T13:02:51.979Z,1.10
2022-08-01T13:05:26.287Z,1.30
2022-08-01T13:07:55.489Z,1.60
2022-08-01T13:10:32.266Z,1.90
2022-08-01T13:13:02.278Z,1.40
2022-08-01T13:15:34.108Z,1.50
2022-08-01T13:18:28.631Z,1.10
2022-08-01T13:21:16.671Z,1.30
2022-08-01T13:24:14.950Z,1.40
2022-08-01T13:27:01.728Z,1.30
2022-08-01T13:29:33.112Z,1.50
2022-08-01T13:32:29.202Z,1.30
2022-08-01T13:35:07.138Z,1.50
2022-08-01T13:37:39.382Z,1.50
2022-08-01T13:40:10.896Z,1.70
2022-08-01T13:42:40.623Z,2.30
2022-08-01T13:45:13.997Z,1.30
2022-08-01T13:48:04.085Z,1.50
2022-08-01T13:50:35.192Z,1.50
2022-08-01T13:53:04.293Z,1.70
2022-08-01T13:55:35.278Z,1.40
2022-08-01T13:58:04.956Z,1.50
2022-08-01T14:00:35.389Z,1.70
2022-08-01T14:03:06.979Z,1.50
2022-08-01T14:05:41.006Z,1.50
2022-08-01T14:08:11.767Z,1.90
2022-08-01T14:10:43.321Z,2.60
2022-08-01T14:13:14.235Z,2.00
2022-08-01T14:15:46.149Z,1.40
2022-08-01T14:18:16.479Z,1.60
2022-08-01T14:20:46.281Z,1.80
2022-08-01T14:23:16.020Z,1.20
2022-08-01T14:26:03.789Z,1.70
2022-08-01T14:28:37.964Z,1.50
2022-08-01T14:31:08.242Z,3.40
2022-08-01T14:33:38.878Z,1.40
2022-08-01T14:36:28.985Z,1.50
2022-08-01T14:39:00.047Z,1.40
2022-08-01T14:41:31.148Z,1.50
2022-08-01T14:44:03.563Z,1.30
2022-08-01T14:46:37.057Z,1.90
2022-08-01T14:49:23.997Z,1.50
2022-08-01T14:51:57.969Z,2.50
2022-08-01T14:54:32.857Z,1.20
2022-08-01T14:57:04.462Z,1.00
2022-08-01T14:59:40.690Z,1.20
2022-08-01T15:02:25.271Z,1.30
2022-08-01T15:04:58.064Z,1.20
2022-08-01T15:07:33.588Z,1.20
2022-08-01T15:10:06.464Z,1.30
2022-08-01T15:12:50.655Z,1.00
2022-08-01T15:15:28.601Z,1.20
2022-08-01T15:17:59.920Z,1.40
2022-08-01T15:20:29.757Z,1.80
2022-08-01T15:22:58.663Z,1.70
2022-08-01T15:25:41.091Z,1.10
2022-08-01T15:28:14.508Z,2.90
2022-08-01T15:30:45.335Z,2.60
2022-08-01T15:33:15.249Z,1.10
2022-08-01T15:35:44.929Z,1.50
2022-08-01T15:38:15.757Z,1.40
2022-08-01T15:40:44.948Z,1.50
2022-08-01T15:43:15.699Z,2.10
2022-08-01T15:45:47.767Z,1.70
2022-08-01T15:48:19.240Z,1.20
2022-08-01T15:50:49.956Z,0.80
2022-08-01T15:53:19.867Z,1.30
2022-08-01T15:55:52.921Z,1.30
2022-08-01T15:58:23.084Z,1.80
2022-08-01T16:00:52.648Z,1.10
2022-08-01T16:03:22.607Z,1.20
2022-08-01T16:05:52.987Z,1.20
2022-08-01T16:08:24.270Z,1.20
2022-08-01T16:10:56.413Z,1.60
2022-08-01T16:13:26.611Z,1.20
2022-08-01T16:15:56.289Z,1.30
2022-08-01T16:18:26.173Z,1.60
2022-08-01T16:20:57.819Z,1.30
2022-08-01T16:23:28.292Z,1.40
2022-08-01T16:25:57.567Z,1.20
2022-08-01T16:28:28.489Z,2.00
2022-08-01T16:31:11.418Z,1.10
2022-08-01T16:33:55.305Z,1.20
2022-08-01T16:36:28.147Z,1.40
2022-08-01T16:38:58.148Z,1.20
2022-08-01T16:41:30.206Z,1.10
2022-08-01T16:44:00.435Z,0.90
2022-08-01T16:46:30.887Z,1.60
2022-08-01T16:49:01.011Z,1.50
2022-08-01T16:51:32.592Z,1.40
2022-08-01T16:54:03.100Z,1.60
2022-08-01T16:56:33.711Z,1.20
2022-08-01T16:59:05.576Z,1.20
2022-08-01T17:01:58.084Z,1.20
2022-08-01T17:04:30.079Z,2.50
2022-08-01T17:07:03.826Z,1.20
2022-08-01T17:09:51.444Z,1.30
2022-08-01T17:12:34.705Z,1.00
2022-08-01T17:15:22.949Z,0.70
2022-08-01T17:18:00.999Z,1.10
2022-08-01T17:20:41.131Z,1.20
2022-08-01T17:23:26.896Z,1.30
2022-08-01T17:25:55.788Z,1.00
2022-08-01T17:28:26.784Z,1.60
2022-08-01T17:30:55.843Z,1.20
2022-08-01T17:33:46.143Z,1.70
2022-08-01T17:36:18.425Z,1.30
2022-08-01T17:38:47.892Z,1.20
2022-08-01T17:41:17.498Z,1.30
2022-08-01T17:43:46.794Z,2.00
2022-08-01T17:46:16.084Z,1.70
2022-08-01T17:48:46.571Z,1.10
2022-08-01T17:51:20.693Z,1.20
2022-08-01T17:53:56.926Z,1.60
2022-08-01T17:56:28.159Z,1.30
2022-08-01T17:58:57.817Z,2.00
2022-08-01T18:03:59.428Z,1.80
2022-08-01T18:06:29.239Z,1.40
2022-08-01T18:08:59.661Z,1.60
2022-08-01T18:11:37.657Z,1.50
2022-08-01T18:14:07.374Z,1.70
2022-08-01T18:16:36.269Z,1.60
2022-08-01T18:19:06.993Z,1.70
2022-08-01T18:21:39.689Z,1.90
2022-08-01T18:24:11.330Z,2.00
2022-08-01T18:26:40.542Z,1.30
2022-08-01T18:29:10.555Z,1.80
2022-08-01T18:31:41.703Z,2.90
2022-08-01T18:34:11.413Z,3.20
2022-08-01T18:41:40.905Z,2.00
2022-08-01T18:44:09.978Z,2.70
2022-08-01T18:46:40.157Z,2.30
2022-08-01T18:49:11.241Z,2.30
2022-08-01T18:51:44.692Z,2.00
2022-08-01T18:54:15.772Z,2.20
2022-08-01T18:56:45.876Z,2.10
2022-08-01T18:59:15.151Z,2.50
2022-08-01T19:01:44.404Z,2.40
2022-08-01T19:04:14.074Z,2.10
2022-08-01T19:06:43.682Z,3.90
2022-08-01T19:09:20.460Z,2.00
2022-08-01T19:11:50.675Z,2.70
2022-08-01T19:14:19.903Z,3.20
2022-08-01T19:16:48.862Z,3.20
2022-08-01T19:19:27.368Z,3.90
2022-08-01T19:21:57.025Z,3.40
2022-08-01T19:24:26.282Z,3.30
2022-08-01T19:26:58.136Z,2.80
2022-08-01T19:29:37.572Z,3.30
2022-08-01T19:32:09.298Z,4.30
2022-08-01T19:34:49.060Z,5.40
2022-08-01T19:39:47.374Z,3.30
2022-08-01T19:42:16.377Z,3.60
2022-08-01T19:44:47.295Z,3.70
2022-08-01T19:47:17.936Z,3.20
2022-08-01T19:49:47.563Z,4.50
2022-08-01T19:52:20.220Z,4.00
2022-08-01T19:54:53.011Z,3.00
2022-08-01T19:57:24.147Z,3.00
2022-08-01T19:59:56.078Z,3.00
2022-08-01T20:02:26.058Z,2.90
2022-08-01T20:04:55.014Z,3.10
2022-08-01T20:07:23.897Z,3.60
2022-08-01T20:09:54.215Z,3.00
2022-08-01T20:12:23.933Z,3.30
2022-08-01T20:14:54.170Z,2.40
2022-08-01T20:17:24.376Z,3.10
2022-08-01T20:19:54.182Z,3.00
2022-08-01T20:22:27.128Z,2.90
2022-08-01T20:25:00.062Z,2.80
2022-08-01T20:27:31.532Z,3.00
2022-08-01T20:30:02.744Z,2.90
2022-08-01T20:32:37.890Z,2.70
2022-08-01T20:35:07.941Z,3.60
2022-08-01T20:38:04.125Z,2.80
2022-08-01T20:40:31.133Z,4.00
2022-08-01T20:43:00.083Z,3.20
2022-08-01T20:45:28.783Z,2.70
2022-08-01T20:47:59.807Z,3.50
2022-08-01T20:50:53.661Z,3.00
2022-08-01T20:53:24.695Z,3.90
2022-08-01T20:56:04.220Z,2.70
2022-08-01T20:58:45.547Z,2.60
2022-08-01T21:01:25.049Z,3.10
2022-08-01T21:04:09.350Z,3.00
2022-08-01T21:06:42.756Z,3.70
2022-08-01T21:09:18.994Z,4.80
2022-08-01T21:11:56.384Z,3.00
2022-08-01T21:14:41.819Z,3.40
2022-08-01T21:17:19.013Z,2.70
2022-08-01T21:19:55.013Z,3.50
2022-08-01T21:22:38.510Z,4.00
2022-08-01T21:25:10.091Z,2.80
2022-08-01T21:27:41.020Z,3.30
2022-08-01T21:30:10.408Z,3.10
2022-08-01T21:32:43.723Z,3.60
2022-08-01T21:35:16.212Z,3.20
2022-08-01T21:37:52.720Z,3.40
2022-08-01T21:40:24.312Z,3.00
2022-08-01T21:42:54.595Z,4.30
2022-08-01T21:45:25.805Z,3.40
2022-08-01T21:47:56.724Z,3.40
2022-08-01T21:50:26.025Z,2.90
2022-08-01T21:53:11.636Z,4.00
2022-08-01T21:55:57.288Z,4.10
2022-08-01T21:58:52.191Z,3.40
2022-08-01T22:01:50.829Z,3.90
2022-08-01T22:04:43.223Z,4.20
2022-08-01T22:09:50.428Z,3.10
2022-08-01T22:12:21.092Z,5.80
2022-08-01T22:14:54.447Z,4.00
2022-08-01T22:17:25.492Z,3.60
2022-08-01T22:19:56.672Z,4.10
2022-08-01T22:22:50.947Z,4.30
2022-08-01T22:25:18.791Z,3.30
2022-08-01T22:28:02.826Z,3.70
2022-08-01T22:30:43.405Z,3.90
2022-08-01T22:33:17.208Z,3.20
2022-08-01T22:35:49.255Z,3.60
2022-08-01T22:38:20.127Z,4.00
2022-08-01T22:40:54.809Z,3.40
2022-08-01T22:43:36.724Z,3.30
2022-08-01T22:46:17.904Z,3.70
2022-08-01T22:48:57.738Z,4.50
2022-08-01T22:51:39.084Z,3.10
2022-08-01T22:54:13.495Z,3.90
2022-08-01T22:56:45.449Z,3.60
2022-08-01T22:59:42.728Z,3.90
2022-08-01T23:02:16.604Z,3.20
2022-08-01T23:04:48.615Z,3.80
2022-08-01T23:07:24.733Z,3.90
2022-08-01T23:09:55.396Z,6.10
2022-08-01T23:12:26.813Z,5.50
2022-08-01T23:14:58.066Z,4.10
2022-08-01T23:17:30.415Z,5.50
2022-08-01T23:20:01.977Z,3.50
2022-08-01T23:22:34.025Z,4.10
2022-08-01T23:25:13.156Z,3.90
2022-08-01T23:28:03.679Z,3.60
2022-08-01T23:30:37.051Z,4.00
2022-08-01T23:33:06.543Z,3.40
2022-08-01T23:35:38.804Z,3.30
2022-08-01T23:38:11.526Z,3.80
2022-08-01T23:40:40.591Z,4.50
2022-08-01T23:43:14.579Z,5.00
2022-08-01T23:46:02.150Z,4.20
2022-08-01T23:48:37.817Z,4.30
2022-08-01T23:51:09.244Z,4.30
2022-08-01T23:53:39.554Z,3.80
2022-08-01T23:56:09.211Z,3.80
2022-08-01T23:58:38.998Z,5.10
